This is the latest recevied weather packets stored in our database for station/object KE8GJZ-1. If no packets are shown the sender has not sent any weather packets the latest 10 day(s).
| Time | Temp. | Humidity | Pressure | Rain* | Wind** | Luminosity | Snow |
|---|---|---|---|---|---|---|---|
| 1777955114 | 13.33° C | 95% | 998.6 hPa | 0 mm | - | 0 W/m² | - |
| 1777954812 | 13.89° C | 95% | 999 hPa | 0 mm | - | 0 W/m² | - |
| 1777954509 | 13.89° C | 94% | 999.8 hPa | 0 mm | - | 0 W/m² | - |
| 1777954206 | 14.44° C | 92% | 1000 hPa | 1.78 mm | - | 0 W/m² | - |
| 1777953903 | 15° C | 90% | 999.9 hPa | 1.78 mm | - | 0 W/m² | - |
| 1777953600 | 15.56° C | 85% | 999.7 hPa | 3.05 mm | - | 0 W/m² | - |
| 1777953296 | 16.67° C | 81% | 999.6 hPa | 1.27 mm | - | 0 W/m² | - |
| 1777952994 | 18.33° C | 74% | 999.3 hPa | 0 mm | - | 0 W/m² | - |
| 1777952690 | 18.89° C | 68% | 999.2 hPa | 0 mm | - | 0 W/m² | - |
| 1777952387 | 18.89° C | 68% | 999 hPa | 0 mm | - | 0 W/m² | - |
| 1777952084 | 18.33° C | 69% | 999 hPa | 0 mm | - | 0 W/m² | - |
| 1777951782 | 18.33° C | 69% | 998.9 hPa | 0 mm | - | 0 W/m² | - |
| 1777951479 | 18.33° C | 69% | 998.9 hPa | 0 mm | - | 0 W/m² | - |
| 1777951175 | 18.33° C | 70% | 998.9 hPa | 0 mm | - | 0 W/m² | - |
| 1777950872 | 18.33° C | 69% | 999 hPa | 0 mm | - | 0 W/m² | - |
| 1777950569 | 18.33° C | 69% | 999 hPa | 0 mm | - | 0 W/m² | - |
| 1777950265 | 18.33° C | 70% | 999 hPa | 0 mm | - | 0 W/m² | - |
| 1777949961 | 18.33° C | 70% | 999 hPa | 0 mm | - | 0 W/m² | - |
| 1777949658 | 17.78° C | 71% | 998.8 hPa | 0 mm | - | 0 W/m² | - |
| 1777949357 | 17.78° C | 71% | 998.9 hPa | 0 mm | - | 0 W/m² | - |
| 1777949054 | 17.78° C | 71% | 998.6 hPa | 0 mm | - | 0 W/m² | - |
| 1777948751 | 17.78° C | 71% | 998.6 hPa | 0 mm | - | 0 W/m² | - |
| 1777948448 | 17.78° C | 71% | 998.6 hPa | 0 mm | - | 0 W/m² | - |
| 1777948145 | 17.78° C | 71% | 998.3 hPa | 0 mm | - | 0 W/m² | - |
| 1777947843 | 17.22° C | 72% | 998.4 hPa | 0 mm | - | 0 W/m² | - |
* Rain latest hour (hover to see other rain measurements)
** Current wind speed in m/s (hover to see current wind gust speed)